Terminal Aerodrome Forecast
Issued by NWS

Home | Current Version | Previous Version | Text Only | Print | Product List | Glossary On
Versions: 1 2 3 4 5 6 7 8 9 10 11 12 13
000
FTUS43 KFGF 201720
TAFBJI
TAF
KBJI 201720Z 2018/2118 17012G20KT P6SM FEW200
     FM210100 16015G24KT P6SM SCT250 WS020/18045KT
     FM210800 17015G23KT P6SM BKN140
     FM211200 17014KT P6SM BKN015=

USA.gov is the U.S. government's official web portal to all federal, state and local government web resources and services.